sensor_id;sensor_type;location;lat;lon;timestamp;P1;durP1;ratioP1;P2;durP2;ratioP2
23745;SDS011;12053;48.878;9.632;2023-02-15T00:01:41;21.88;;;12.57;;
23745;SDS011;12053;48.878;9.632;2023-02-15T00:04:08;21.38;;;13.23;;
23745;SDS011;12053;48.878;9.632;2023-02-15T00:06:35;21.73;;;12.57;;
23745;SDS011;12053;48.878;9.632;2023-02-15T00:09:03;22.83;;;13.68;;
23745;SDS011;12053;48.878;9.632;2023-02-15T00:11:30;19.15;;;12.57;;
23745;SDS011;12053;48.878;9.632;2023-02-15T00:14:08;21.13;;;12.52;;
23745;SDS011;12053;48.878;9.632;2023-02-15T00:16:35;20.50;;;12.25;;
23745;SDS011;12053;48.878;9.632;2023-02-15T00:19:03;21.23;;;12.73;;
23745;SDS011;12053;48.878;9.632;2023-02-15T00:21:31;17.60;;;11.75;;
23745;SDS011;12053;48.878;9.632;2023-02-15T00:23:59;19.92;;;12.70;;
23745;SDS011;12053;48.878;9.632;2023-02-15T00:26:27;18.98;;;12.57;;
23745;SDS011;12053;48.878;9.632;2023-02-15T00:28:54;18.73;;;12.10;;
23745;SDS011;12053;48.878;9.632;2023-02-15T00:31:22;19.33;;;12.60;;
23745;SDS011;12053;48.878;9.632;2023-02-15T00:33:49;21.05;;;12.20;;
23745;SDS011;12053;48.878;9.632;2023-02-15T00:36:16;17.90;;;12.18;;
23745;SDS011;12053;48.878;9.632;2023-02-15T00:38:43;20.10;;;12.65;;
23745;SDS011;12053;48.878;9.632;2023-02-15T00:41:11;20.00;;;12.80;;
23745;SDS011;12053;48.878;9.632;2023-02-15T00:43:38;17.73;;;11.95;;
23745;SDS011;12053;48.878;9.632;2023-02-15T00:46:05;19.83;;;12.25;;
23745;SDS011;12053;48.878;9.632;2023-02-15T00:48:32;17.48;;;11.27;;
23745;SDS011;12053;48.878;9.632;2023-02-15T00:51:00;17.42;;;11.55;;
23745;SDS011;12053;48.878;9.632;2023-02-15T00:53:28;17.27;;;10.77;;
23745;SDS011;12053;48.878;9.632;2023-02-15T00:55:56;18.20;;;11.52;;
23745;SDS011;12053;48.878;9.632;2023-02-15T00:58:23;18.45;;;12.25;;
23745;SDS011;12053;48.878;9.632;2023-02-15T01:00:51;17.40;;;11.65;;
23745;SDS011;12053;48.878;9.632;2023-02-15T01:03:19;20.40;;;12.15;;
23745;SDS011;12053;48.878;9.632;2023-02-15T01:05:47;18.95;;;12.32;;
23745;SDS011;12053;48.878;9.632;2023-02-15T01:08:14;19.23;;;12.30;;
23745;SDS011;12053;48.878;9.632;2023-02-15T01:10:41;18.58;;;12.00;;
23745;SDS011;12053;48.878;9.632;2023-02-15T01:13:10;20.50;;;12.80;;
23745;SDS011;12053;48.878;9.632;2023-02-15T01:15:37;18.88;;;11.90;;
23745;SDS011;12053;48.878;9.632;2023-02-15T01:18:04;21.08;;;12.50;;
23745;SDS011;12053;48.878;9.632;2023-02-15T01:20:33;17.45;;;11.13;;
23745;SDS011;12053;48.878;9.632;2023-02-15T01:23:01;17.85;;;11.50;;
23745;SDS011;12053;48.878;9.632;2023-02-15T01:25:29;14.43;;;10.18;;
23745;SDS011;12053;48.878;9.632;2023-02-15T01:27:56;15.95;;;10.73;;
23745;SDS011;12053;48.878;9.632;2023-02-15T01:30:23;16.83;;;10.85;;
23745;SDS011;12053;48.878;9.632;2023-02-15T01:32:50;16.70;;;10.93;;
23745;SDS011;12053;48.878;9.632;2023-02-15T01:35:18;17.05;;;11.27;;
23745;SDS011;12053;48.878;9.632;2023-02-15T01:37:45;16.73;;;11.23;;
23745;SDS011;12053;48.878;9.632;2023-02-15T01:40:13;19.60;;;11.70;;
23745;SDS011;12053;48.878;9.632;2023-02-15T01:42:41;16.65;;;10.80;;
23745;SDS011;12053;48.878;9.632;2023-02-15T01:45:18;17.98;;;11.40;;
23745;SDS011;12053;48.878;9.632;2023-02-15T01:52:55;19.20;;;11.32;;
23745;SDS011;12053;48.878;9.632;2023-02-15T01:55:23;18.08;;;11.93;;
23745;SDS011;12053;48.878;9.632;2023-02-15T01:57:51;19.05;;;11.85;;
23745;SDS011;12053;48.878;9.632;2023-02-15T02:00:18;19.65;;;11.70;;
23745;SDS011;12053;48.878;9.632;2023-02-15T02:05:42;17.23;;;11.82;;
23745;SDS011;12053;48.878;9.632;2023-02-15T02:08:09;19.20;;;11.65;;
23745;SDS011;12053;48.878;9.632;2023-02-15T02:10:36;16.95;;;11.30;;
23745;SDS011;12053;48.878;9.632;2023-02-15T02:13:04;16.38;;;11.05;;
23745;SDS011;12053;48.878;9.632;2023-02-15T02:16:18;19.08;;;11.52;;
23745;SDS011;12053;48.878;9.632;2023-02-15T02:18:27;16.50;;;10.65;;
23745;SDS011;12053;48.878;9.632;2023-02-15T02:31:26;20.67;;;12.00;;
23745;SDS011;12053;48.878;9.632;2023-02-15T02:40:10;20.88;;;11.27;;
23745;SDS011;12053;48.878;9.632;2023-02-15T02:42:40;17.80;;;10.48;;
23745;SDS011;12053;48.878;9.632;2023-02-15T02:45:09;16.25;;;10.43;;
23745;SDS011;12053;48.878;9.632;2023-02-15T02:47:41;15.02;;;10.23;;
23745;SDS011;12053;48.878;9.632;2023-02-15T02:50:14;21.40;;;13.50;;
23745;SDS011;12053;48.878;9.632;2023-02-15T02:52:43;17.13;;;11.13;;
23745;SDS011;12053;48.878;9.632;2023-02-15T03:00:21;18.02;;;10.80;;
23745;SDS011;12053;48.878;9.632;2023-02-15T03:02:49;19.75;;;12.02;;
23745;SDS011;12053;48.878;9.632;2023-02-15T03:05:19;20.33;;;12.23;;
23745;SDS011;12053;48.878;9.632;2023-02-15T03:07:49;20.10;;;11.95;;
23745;SDS011;12053;48.878;9.632;2023-02-15T03:10:18;19.88;;;11.98;;
23745;SDS011;12053;48.878;9.632;2023-02-15T03:12:46;33.10;;;19.15;;
23745;SDS011;12053;48.878;9.632;2023-02-15T03:15:17;34.35;;;17.98;;
23745;SDS011;12053;48.878;9.632;2023-02-15T03:17:47;28.73;;;16.45;;
23745;SDS011;12053;48.878;9.632;2023-02-15T03:20:17;25.15;;;14.75;;
23745;SDS011;12053;48.878;9.632;2023-02-15T03:22:47;28.85;;;15.25;;
23745;SDS011;12053;48.878;9.632;2023-02-15T03:25:19;26.77;;;14.20;;
23745;SDS011;12053;48.878;9.632;2023-02-15T03:27:49;24.73;;;14.02;;
23745;SDS011;12053;48.878;9.632;2023-02-15T03:30:17;25.90;;;14.18;;
23745;SDS011;12053;48.878;9.632;2023-02-15T03:32:45;26.25;;;15.40;;
23745;SDS011;12053;48.878;9.632;2023-02-15T03:35:14;28.40;;;14.43;;
23745;SDS011;12053;48.878;9.632;2023-02-15T03:37:42;31.42;;;16.38;;
23745;SDS011;12053;48.878;9.632;2023-02-15T03:40:15;40.17;;;22.15;;
23745;SDS011;12053;48.878;9.632;2023-02-15T03:46:22;29.08;;;17.35;;
23745;SDS011;12053;48.878;9.632;2023-02-15T03:48:52;31.00;;;17.77;;
23745;SDS011;12053;48.878;9.632;2023-02-15T03:51:21;46.97;;;22.35;;
23745;SDS011;12053;48.878;9.632;2023-02-15T03:54:08;67.38;;;27.13;;
23745;SDS011;12053;48.878;9.632;2023-02-15T03:56:36;39.30;;;20.08;;
23745;SDS011;12053;48.878;9.632;2023-02-15T03:59:04;38.63;;;19.80;;
23745;SDS011;12053;48.878;9.632;2023-02-15T04:02:10;32.05;;;16.85;;
23745;SDS011;12053;48.878;9.632;2023-02-15T04:04:42;25.10;;;14.73;;
23745;SDS011;12053;48.878;9.632;2023-02-15T04:07:10;28.40;;;16.30;;
23745;SDS011;12053;48.878;9.632;2023-02-15T04:09:38;22.67;;;14.27;;
23745;SDS011;12053;48.878;9.632;2023-02-15T04:12:24;20.98;;;13.25;;
23745;SDS011;12053;48.878;9.632;2023-02-15T04:14:51;20.40;;;12.23;;
23745;SDS011;12053;48.878;9.632;2023-02-15T04:17:37;19.95;;;12.30;;
23745;SDS011;12053;48.878;9.632;2023-02-15T04:20:04;19.90;;;12.10;;
23745;SDS011;12053;48.878;9.632;2023-02-15T04:22:51;21.85;;;13.13;;
23745;SDS011;12053;48.878;9.632;2023-02-15T04:25:36;17.50;;;11.55;;
23745;SDS011;12053;48.878;9.632;2023-02-15T04:28:04;22.25;;;12.48;;
23745;SDS011;12053;48.878;9.632;2023-02-15T04:30:31;18.98;;;12.27;;
23745;SDS011;12053;48.878;9.632;2023-02-15T04:32:59;22.15;;;12.90;;
23745;SDS011;12053;48.878;9.632;2023-02-15T04:35:26;23.23;;;13.68;;
23745;SDS011;12053;48.878;9.632;2023-02-15T04:37:53;21.88;;;13.23;;
23745;SDS011;12053;48.878;9.632;2023-02-15T04:40:22;22.10;;;13.73;;
23745;SDS011;12053;48.878;9.632;2023-02-15T04:42:49;27.50;;;15.27;;
23745;SDS011;12053;48.878;9.632;2023-02-15T04:45:16;24.83;;;14.95;;
23745;SDS011;12053;48.878;9.632;2023-02-15T04:47:44;27.25;;;15.77;;
23745;SDS011;12053;48.878;9.632;2023-02-15T04:50:11;24.70;;;13.82;;
23745;SDS011;12053;48.878;9.632;2023-02-15T04:52:38;24.65;;;15.82;;
23745;SDS011;12053;48.878;9.632;2023-02-15T04:55:06;24.85;;;15.02;;
23745;SDS011;12053;48.878;9.632;2023-02-15T04:57:33;27.70;;;15.05;;
23745;SDS011;12053;48.878;9.632;2023-02-15T05:00:00;24.00;;;15.40;;
23745;SDS011;12053;48.878;9.632;2023-02-15T05:02:27;25.95;;;15.73;;
23745;SDS011;12053;48.878;9.632;2023-02-15T05:04:54;28.55;;;16.27;;
23745;SDS011;12053;48.878;9.632;2023-02-15T05:07:22;26.77;;;15.50;;
23745;SDS011;12053;48.878;9.632;2023-02-15T05:09:49;26.25;;;14.45;;
23745;SDS011;12053;48.878;9.632;2023-02-15T05:12:16;24.33;;;14.82;;
23745;SDS011;12053;48.878;9.632;2023-02-15T05:14:43;25.98;;;14.75;;
23745;SDS011;12053;48.878;9.632;2023-02-15T05:17:10;27.30;;;14.80;;
23745;SDS011;12053;48.878;9.632;2023-02-15T05:19:37;23.70;;;14.18;;
23745;SDS011;12053;48.878;9.632;2023-02-15T05:22:04;22.83;;;14.02;;
23745;SDS011;12053;48.878;9.632;2023-02-15T05:24:32;24.88;;;15.38;;
23745;SDS011;12053;48.878;9.632;2023-02-15T05:27:17;25.77;;;14.98;;
23745;SDS011;12053;48.878;9.632;2023-02-15T05:30:03;24.05;;;14.25;;
23745;SDS011;12053;48.878;9.632;2023-02-15T05:32:31;23.80;;;15.35;;
23745;SDS011;12053;48.878;9.632;2023-02-15T05:34:59;24.63;;;15.20;;
23745;SDS011;12053;48.878;9.632;2023-02-15T05:37:26;29.65;;;17.45;;
23745;SDS011;12053;48.878;9.632;2023-02-15T05:39:53;31.05;;;17.08;;
23745;SDS011;12053;48.878;9.632;2023-02-15T05:42:20;29.02;;;17.88;;
23745;SDS011;12053;48.878;9.632;2023-02-15T05:44:47;27.50;;;17.00;;
23745;SDS011;12053;48.878;9.632;2023-02-15T05:47:14;29.05;;;17.92;;
23745;SDS011;12053;48.878;9.632;2023-02-15T05:49:41;27.52;;;16.83;;
23745;SDS011;12053;48.878;9.632;2023-02-15T05:52:08;30.08;;;16.05;;
23745;SDS011;12053;48.878;9.632;2023-02-15T05:54:35;26.17;;;16.73;;
23745;SDS011;12053;48.878;9.632;2023-02-15T05:57:03;31.10;;;16.13;;
23745;SDS011;12053;48.878;9.632;2023-02-15T05:59:30;34.75;;;22.85;;
23745;SDS011;12053;48.878;9.632;2023-02-15T06:01:57;30.35;;;19.58;;
23745;SDS011;12053;48.878;9.632;2023-02-15T06:04:24;34.33;;;19.98;;
23745;SDS011;12053;48.878;9.632;2023-02-15T06:06:51;27.08;;;16.80;;
23745;SDS011;12053;48.878;9.632;2023-02-15T06:09:18;29.33;;;16.70;;
23745;SDS011;12053;48.878;9.632;2023-02-15T06:11:46;34.58;;;19.15;;
23745;SDS011;12053;48.878;9.632;2023-02-15T06:14:13;28.30;;;17.25;;
23745;SDS011;12053;48.878;9.632;2023-02-15T06:16:40;28.90;;;16.85;;
23745;SDS011;12053;48.878;9.632;2023-02-15T06:19:07;53.70;;;29.73;;
23745;SDS011;12053;48.878;9.632;2023-02-15T06:21:34;34.20;;;20.17;;
23745;SDS011;12053;48.878;9.632;2023-02-15T06:24:01;34.88;;;20.45;;
23745;SDS011;12053;48.878;9.632;2023-02-15T06:26:28;30.63;;;18.58;;
23745;SDS011;12053;48.878;9.632;2023-02-15T06:28:56;30.17;;;18.35;;
23745;SDS011;12053;48.878;9.632;2023-02-15T06:31:23;51.78;;;28.10;;
23745;SDS011;12053;48.878;9.632;2023-02-15T06:33:50;60.05;;;31.25;;
23745;SDS011;12053;48.878;9.632;2023-02-15T06:36:17;53.30;;;28.08;;
23745;SDS011;12053;48.878;9.632;2023-02-15T06:38:44;60.72;;;30.67;;
23745;SDS011;12053;48.878;9.632;2023-02-15T06:41:12;48.28;;;26.17;;
23745;SDS011;12053;48.878;9.632;2023-02-15T06:43:39;46.40;;;25.90;;
23745;SDS011;12053;48.878;9.632;2023-02-15T06:46:06;57.17;;;29.23;;
23745;SDS011;12053;48.878;9.632;2023-02-15T06:48:33;57.95;;;29.35;;
23745;SDS011;12053;48.878;9.632;2023-02-15T06:51:00;63.88;;;30.80;;
23745;SDS011;12053;48.878;9.632;2023-02-15T06:53:27;55.10;;;29.00;;
23745;SDS011;12053;48.878;9.632;2023-02-15T06:56:04;64.35;;;32.00;;
23745;SDS011;12053;48.878;9.632;2023-02-15T06:58:33;49.97;;;26.77;;
23745;SDS011;12053;48.878;9.632;2023-02-15T07:01:00;36.50;;;21.60;;
23745;SDS011;12053;48.878;9.632;2023-02-15T07:03:27;33.10;;;19.05;;
23745;SDS011;12053;48.878;9.632;2023-02-15T07:05:55;31.85;;;20.13;;
23745;SDS011;12053;48.878;9.632;2023-02-15T07:08:22;31.30;;;18.58;;
23745;SDS011;12053;48.878;9.632;2023-02-15T07:10:50;30.20;;;18.42;;
23745;SDS011;12053;48.878;9.632;2023-02-15T07:13:18;31.10;;;19.50;;
23745;SDS011;12053;48.878;9.632;2023-02-15T07:15:46;28.98;;;19.27;;
23745;SDS011;12053;48.878;9.632;2023-02-15T07:18:13;27.35;;;19.00;;
23745;SDS011;12053;48.878;9.632;2023-02-15T07:20:40;29.13;;;19.13;;
23745;SDS011;12053;48.878;9.632;2023-02-15T07:23:08;23.60;;;18.27;;
23745;SDS011;12053;48.878;9.632;2023-02-15T07:25:35;24.38;;;17.85;;
23745;SDS011;12053;48.878;9.632;2023-02-15T07:28:03;29.25;;;18.40;;
23745;SDS011;12053;48.878;9.632;2023-02-15T07:30:30;26.45;;;17.00;;
23745;SDS011;12053;48.878;9.632;2023-02-15T07:32:58;23.00;;;16.45;;
23745;SDS011;12053;48.878;9.632;2023-02-15T07:35:48;25.48;;;17.30;;
23745;SDS011;12053;48.878;9.632;2023-02-15T07:38:15;24.88;;;17.33;;
23745;SDS011;12053;48.878;9.632;2023-02-15T07:40:42;27.88;;;17.58;;
23745;SDS011;12053;48.878;9.632;2023-02-15T07:43:10;30.35;;;18.80;;
23745;SDS011;12053;48.878;9.632;2023-02-15T07:45:37;29.98;;;20.08;;
23745;SDS011;12053;48.878;9.632;2023-02-15T07:48:05;26.70;;;18.10;;
23745;SDS011;12053;48.878;9.632;2023-02-15T07:50:32;25.42;;;18.23;;
23745;SDS011;12053;48.878;9.632;2023-02-15T07:53:01;25.13;;;17.30;;
23745;SDS011;12053;48.878;9.632;2023-02-15T07:55:28;22.17;;;15.75;;
23745;SDS011;12053;48.878;9.632;2023-02-15T07:57:55;20.13;;;15.02;;
23745;SDS011;12053;48.878;9.632;2023-02-15T08:00:22;24.33;;;16.05;;
23745;SDS011;12053;48.878;9.632;2023-02-15T08:02:52;23.30;;;15.90;;
23745;SDS011;12053;48.878;9.632;2023-02-15T08:05:39;23.63;;;15.60;;
23745;SDS011;12053;48.878;9.632;2023-02-15T08:08:07;24.17;;;16.98;;
23745;SDS011;12053;48.878;9.632;2023-02-15T08:10:35;30.38;;;18.23;;
23745;SDS011;12053;48.878;9.632;2023-02-15T08:13:20;36.65;;;15.00;;
23745;SDS011;12053;48.878;9.632;2023-02-15T08:15:51;42.55;;;18.55;;
23745;SDS011;12053;48.878;9.632;2023-02-15T08:18:18;40.25;;;17.95;;
23745;SDS011;12053;48.878;9.632;2023-02-15T08:20:49;29.85;;;17.20;;
23745;SDS011;12053;48.878;9.632;2023-02-15T08:23:16;25.33;;;16.88;;
23745;SDS011;12053;48.878;9.632;2023-02-15T08:25:43;31.50;;;18.10;;
23745;SDS011;12053;48.878;9.632;2023-02-15T08:28:10;25.40;;;16.17;;
23745;SDS011;12053;48.878;9.632;2023-02-15T08:30:38;32.13;;;16.90;;
23745;SDS011;12053;48.878;9.632;2023-02-15T08:33:05;27.45;;;16.90;;
23745;SDS011;12053;48.878;9.632;2023-02-15T08:35:33;25.35;;;15.90;;
23745;SDS011;12053;48.878;9.632;2023-02-15T08:38:00;23.25;;;15.80;;
23745;SDS011;12053;48.878;9.632;2023-02-15T08:40:27;23.40;;;17.00;;
23745;SDS011;12053;48.878;9.632;2023-02-15T08:42:54;24.83;;;17.17;;
23745;SDS011;12053;48.878;9.632;2023-02-15T08:45:21;25.08;;;18.13;;
23745;SDS011;12053;48.878;9.632;2023-02-15T08:47:51;22.50;;;16.13;;
23745;SDS011;12053;48.878;9.632;2023-02-15T08:50:18;19.65;;;13.98;;
23745;SDS011;12053;48.878;9.632;2023-02-15T08:52:45;21.83;;;14.95;;
23745;SDS011;12053;48.878;9.632;2023-02-15T08:55:12;24.75;;;15.07;;
23745;SDS011;12053;48.878;9.632;2023-02-15T08:57:40;24.15;;;16.33;;
23745;SDS011;12053;48.878;9.632;2023-02-15T09:00:11;28.08;;;18.27;;
23745;SDS011;12053;48.878;9.632;2023-02-15T09:02:38;22.63;;;16.40;;
23745;SDS011;12053;48.878;9.632;2023-02-15T09:05:05;21.00;;;15.25;;
23745;SDS011;12053;48.878;9.632;2023-02-15T09:07:32;17.77;;;12.73;;
23745;SDS011;12053;48.878;9.632;2023-02-15T09:10:00;18.58;;;13.68;;
23745;SDS011;12053;48.878;9.632;2023-02-15T09:12:27;17.40;;;13.32;;
23745;SDS011;12053;48.878;9.632;2023-02-15T09:14:54;17.67;;;12.73;;
23745;SDS011;12053;48.878;9.632;2023-02-15T09:17:21;18.92;;;13.48;;
23745;SDS011;12053;48.878;9.632;2023-02-15T09:19:48;19.65;;;13.40;;
23745;SDS011;12053;48.878;9.632;2023-02-15T09:22:15;19.73;;;15.60;;
23745;SDS011;12053;48.878;9.632;2023-02-15T09:24:42;21.10;;;13.95;;
23745;SDS011;12053;48.878;9.632;2023-02-15T09:27:10;17.90;;;12.52;;
23745;SDS011;12053;48.878;9.632;2023-02-15T09:29:37;18.20;;;11.98;;
23745;SDS011;12053;48.878;9.632;2023-02-15T09:32:04;16.15;;;11.55;;
23745;SDS011;12053;48.878;9.632;2023-02-15T09:34:31;16.08;;;12.13;;
23745;SDS011;12053;48.878;9.632;2023-02-15T09:37:00;19.20;;;12.88;;
23745;SDS011;12053;48.878;9.632;2023-02-15T09:39:28;17.20;;;12.38;;
23745;SDS011;12053;48.878;9.632;2023-02-15T09:47:43;17.17;;;12.43;;
23745;SDS011;12053;48.878;9.632;2023-02-15T09:50:25;17.27;;;12.38;;
23745;SDS011;12053;48.878;9.632;2023-02-15T09:58:36;15.70;;;11.85;;
23745;SDS011;12053;48.878;9.632;2023-02-15T10:09:14;17.75;;;12.88;;
23745;SDS011;12053;48.878;9.632;2023-02-15T10:24:53;20.30;;;11.87;;
23745;SDS011;12053;48.878;9.632;2023-02-15T10:27:22;20.33;;;11.95;;
23745;SDS011;12053;48.878;9.632;2023-02-15T10:30:33;16.45;;;11.07;;
23745;SDS011;12053;48.878;9.632;2023-02-15T10:32:44;16.85;;;11.55;;
23745;SDS011;12053;48.878;9.632;2023-02-15T10:35:16;14.82;;;10.63;;
23745;SDS011;12053;48.878;9.632;2023-02-15T10:40:32;15.73;;;10.88;;
23745;SDS011;12053;48.878;9.632;2023-02-15T10:45:36;18.40;;;11.70;;
23745;SDS011;12053;48.878;9.632;2023-02-15T10:53:24;50.42;;;29.88;;
23745;SDS011;12053;48.878;9.632;2023-02-15T10:55:59;32.03;;;20.52;;
23745;SDS011;12053;48.878;9.632;2023-02-15T10:58:31;25.75;;;19.02;;
23745;SDS011;12053;48.878;9.632;2023-02-15T11:01:21;20.20;;;13.40;;
23745;SDS011;12053;48.878;9.632;2023-02-15T11:06:21;12.88;;;9.43;;
23745;SDS011;12053;48.878;9.632;2023-02-15T11:08:53;14.23;;;9.43;;
23745;SDS011;12053;48.878;9.632;2023-02-15T11:11:54;13.85;;;9.82;;
23745;SDS011;12053;48.878;9.632;2023-02-15T11:16:43;16.90;;;11.27;;
23745;SDS011;12053;48.878;9.632;2023-02-15T11:19:14;11.88;;;8.23;;
23745;SDS011;12053;48.878;9.632;2023-02-15T11:21:52;11.60;;;9.20;;
23745;SDS011;12053;48.878;9.632;2023-02-15T11:24:24;15.13;;;9.02;;
23745;SDS011;12053;48.878;9.632;2023-02-15T11:27:05;15.40;;;9.82;;
23745;SDS011;12053;48.878;9.632;2023-02-15T11:37:37;13.18;;;8.68;;
23745;SDS011;12053;48.878;9.632;2023-02-15T11:40:14;9.90;;;7.45;;
23745;SDS011;12053;48.878;9.632;2023-02-15T11:42:42;10.88;;;7.28;;
23745;SDS011;12053;48.878;9.632;2023-02-15T11:45:25;7.45;;;5.55;;
23745;SDS011;12053;48.878;9.632;2023-02-15T11:50:22;14.43;;;7.00;;
23745;SDS011;12053;48.878;9.632;2023-02-15T11:52:50;9.65;;;6.35;;
23745;SDS011;12053;48.878;9.632;2023-02-15T11:55:20;10.25;;;6.75;;
23745;SDS011;12053;48.878;9.632;2023-02-15T12:00:36;7.22;;;4.50;;
23745;SDS011;12053;48.878;9.632;2023-02-15T12:03:09;8.27;;;4.70;;
23745;SDS011;12053;48.878;9.632;2023-02-15T12:05:40;8.23;;;4.70;;
23745;SDS011;12053;48.878;9.632;2023-02-15T12:08:15;5.65;;;4.30;;
23745;SDS011;12053;48.878;9.632;2023-02-15T12:10:44;7.63;;;5.00;;
23745;SDS011;12053;48.878;9.632;2023-02-15T12:13:15;9.73;;;5.13;;
23745;SDS011;12053;48.878;9.632;2023-02-15T12:15:49;8.48;;;5.03;;
23745;SDS011;12053;48.878;9.632;2023-02-15T12:21:02;8.38;;;5.53;;
23745;SDS011;12053;48.878;9.632;2023-02-15T12:23:30;8.45;;;4.80;;
23745;SDS011;12053;48.878;9.632;2023-02-15T12:25:59;8.70;;;5.75;;
23745;SDS011;12053;48.878;9.632;2023-02-15T12:28:33;8.57;;;5.13;;
23745;SDS011;12053;48.878;9.632;2023-02-15T12:31:07;6.63;;;5.07;;
23745;SDS011;12053;48.878;9.632;2023-02-15T12:33:40;8.13;;;5.15;;
23745;SDS011;12053;48.878;9.632;2023-02-15T12:36:18;7.07;;;4.75;;
23745;SDS011;12053;48.878;9.632;2023-02-15T12:41:29;7.60;;;4.93;;
23745;SDS011;12053;48.878;9.632;2023-02-15T12:44:16;7.53;;;5.97;;
23745;SDS011;12053;48.878;9.632;2023-02-15T12:46:58;7.45;;;5.60;;
23745;SDS011;12053;48.878;9.632;2023-02-15T12:49:30;8.32;;;6.28;;
23745;SDS011;12053;48.878;9.632;2023-02-15T12:51:58;7.85;;;5.60;;
23745;SDS011;12053;48.878;9.632;2023-02-15T12:54:30;8.07;;;5.78;;
23745;SDS011;12053;48.878;9.632;2023-02-15T12:56:58;11.38;;;7.28;;
23745;SDS011;12053;48.878;9.632;2023-02-15T12:59:25;10.82;;;7.47;;
23745;SDS011;12053;48.878;9.632;2023-02-15T13:01:53;9.32;;;6.60;;
23745;SDS011;12053;48.878;9.632;2023-02-15T13:04:22;10.13;;;7.20;;
23745;SDS011;12053;48.878;9.632;2023-02-15T13:06:50;9.57;;;6.03;;
23745;SDS011;12053;48.878;9.632;2023-02-15T13:14:37;8.27;;;5.32;;
23745;SDS011;12053;48.878;9.632;2023-02-15T13:17:04;7.30;;;5.43;;
23745;SDS011;12053;48.878;9.632;2023-02-15T13:19:39;8.23;;;5.85;;
23745;SDS011;12053;48.878;9.632;2023-02-15T13:22:12;9.88;;;5.70;;
23745;SDS011;12053;48.878;9.632;2023-02-15T13:24:41;9.20;;;5.38;;
23745;SDS011;12053;48.878;9.632;2023-02-15T13:27:16;9.77;;;6.53;;
23745;SDS011;12053;48.878;9.632;2023-02-15T13:29:56;10.23;;;5.80;;
23745;SDS011;12053;48.878;9.632;2023-02-15T13:32:26;8.30;;;5.28;;
23745;SDS011;12053;48.878;9.632;2023-02-15T13:34:56;8.80;;;5.63;;
23745;SDS011;12053;48.878;9.632;2023-02-15T13:37:33;10.40;;;5.78;;
23745;SDS011;12053;48.878;9.632;2023-02-15T13:45:46;9.65;;;6.28;;
23745;SDS011;12053;48.878;9.632;2023-02-15T13:48:26;9.50;;;6.00;;
23745;SDS011;12053;48.878;9.632;2023-02-15T14:06:44;8.35;;;6.10;;
23745;SDS011;12053;48.878;9.632;2023-02-15T14:11:46;9.90;;;5.72;;
23745;SDS011;12053;48.878;9.632;2023-02-15T14:17:22;6.97;;;5.65;;
23745;SDS011;12053;48.878;9.632;2023-02-15T14:20:01;10.27;;;5.55;;
23745;SDS011;12053;48.878;9.632;2023-02-15T14:22:35;8.75;;;5.88;;
23745;SDS011;12053;48.878;9.632;2023-02-15T14:25:06;10.13;;;5.72;;
23745;SDS011;12053;48.878;9.632;2023-02-15T14:27:49;9.52;;;6.53;;
23745;SDS011;12053;48.878;9.632;2023-02-15T14:30:38;8.77;;;6.47;;
23745;SDS011;12053;48.878;9.632;2023-02-15T14:35:33;9.57;;;6.38;;
23745;SDS011;12053;48.878;9.632;2023-02-15T14:48:43;8.30;;;6.13;;
23745;SDS011;12053;48.878;9.632;2023-02-15T14:51:13;6.55;;;4.78;;
23745;SDS011;12053;48.878;9.632;2023-02-15T14:53:58;11.05;;;4.88;;
23745;SDS011;12053;48.878;9.632;2023-02-15T14:56:25;8.57;;;5.38;;
23745;SDS011;12053;48.878;9.632;2023-02-15T15:04:20;10.95;;;5.93;;
23745;SDS011;12053;48.878;9.632;2023-02-15T15:06:56;16.30;;;6.15;;
23745;SDS011;12053;48.878;9.632;2023-02-15T15:09:27;8.65;;;5.57;;
23745;SDS011;12053;48.878;9.632;2023-02-15T15:12:12;8.73;;;5.40;;
23745;SDS011;12053;48.878;9.632;2023-02-15T15:14:42;11.73;;;5.82;;
23745;SDS011;12053;48.878;9.632;2023-02-15T15:17:10;8.55;;;5.55;;
23745;SDS011;12053;48.878;9.632;2023-02-15T15:24:47;15.82;;;8.30;;
23745;SDS011;12053;48.878;9.632;2023-02-15T15:30:00;10.63;;;6.35;;
23745;SDS011;12053;48.878;9.632;2023-02-15T15:32:27;12.38;;;5.68;;
23745;SDS011;12053;48.878;9.632;2023-02-15T15:37:47;11.20;;;6.50;;
23745;SDS011;12053;48.878;9.632;2023-02-15T15:50:33;11.85;;;7.22;;
23745;SDS011;12053;48.878;9.632;2023-02-15T15:53:01;9.77;;;6.20;;
23745;SDS011;12053;48.878;9.632;2023-02-15T15:55:29;11.88;;;6.90;;
23745;SDS011;12053;48.878;9.632;2023-02-15T15:58:02;19.67;;;12.35;;
23745;SDS011;12053;48.878;9.632;2023-02-15T16:00:33;14.40;;;8.38;;
23745;SDS011;12053;48.878;9.632;2023-02-15T16:03:01;14.30;;;10.25;;
23745;SDS011;12053;48.878;9.632;2023-02-15T16:05:34;28.85;;;16.55;;
23745;SDS011;12053;48.878;9.632;2023-02-15T16:08:01;22.63;;;14.55;;
23745;SDS011;12053;48.878;9.632;2023-02-15T16:10:28;29.17;;;18.80;;
23745;SDS011;12053;48.878;9.632;2023-02-15T16:12:58;15.85;;;9.50;;
23745;SDS011;12053;48.878;9.632;2023-02-15T16:15:30;14.25;;;9.00;;
23745;SDS011;12053;48.878;9.632;2023-02-15T16:17:58;11.93;;;7.60;;
23745;SDS011;12053;48.878;9.632;2023-02-15T16:20:27;11.13;;;7.32;;
23745;SDS011;12053;48.878;9.632;2023-02-15T16:25:37;14.50;;;7.57;;
23745;SDS011;12053;48.878;9.632;2023-02-15T16:28:08;18.48;;;12.13;;
23745;SDS011;12053;48.878;9.632;2023-02-15T16:30:37;25.17;;;15.40;;
23745;SDS011;12053;48.878;9.632;2023-02-15T16:35:37;15.00;;;10.23;;
23745;SDS011;12053;48.878;9.632;2023-02-15T16:38:10;15.10;;;9.27;;
23745;SDS011;12053;48.878;9.632;2023-02-15T16:40:55;19.63;;;12.77;;
23745;SDS011;12053;48.878;9.632;2023-02-15T16:43:24;13.05;;;7.97;;
23745;SDS011;12053;48.878;9.632;2023-02-15T16:45:53;14.45;;;8.77;;
23745;SDS011;12053;48.878;9.632;2023-02-15T16:48:25;14.82;;;8.85;;
23745;SDS011;12053;48.878;9.632;2023-02-15T16:50:54;16.42;;;9.23;;
23745;SDS011;12053;48.878;9.632;2023-02-15T16:53:23;22.10;;;12.73;;
23745;SDS011;12053;48.878;9.632;2023-02-15T16:55:52;21.73;;;12.75;;
23745;SDS011;12053;48.878;9.632;2023-02-15T16:58:23;19.00;;;10.52;;
23745;SDS011;12053;48.878;9.632;2023-02-15T17:00:55;33.08;;;18.52;;
23745;SDS011;12053;48.878;9.632;2023-02-15T17:03:23;25.88;;;16.60;;
23745;SDS011;12053;48.878;9.632;2023-02-15T17:05:52;44.67;;;31.20;;
23745;SDS011;12053;48.878;9.632;2023-02-15T17:08:33;30.70;;;17.10;;
23745;SDS011;12053;48.878;9.632;2023-02-15T17:11:11;23.50;;;14.52;;
23745;SDS011;12053;48.878;9.632;2023-02-15T17:13:39;25.05;;;14.15;;
23745;SDS011;12053;48.878;9.632;2023-02-15T17:16:29;26.67;;;13.52;;
23745;SDS011;12053;48.878;9.632;2023-02-15T17:19:00;20.70;;;13.20;;
23745;SDS011;12053;48.878;9.632;2023-02-15T17:21:32;18.98;;;12.23;;
23745;SDS011;12053;48.878;9.632;2023-02-15T17:24:00;23.58;;;13.07;;
23745;SDS011;12053;48.878;9.632;2023-02-15T17:26:31;21.77;;;12.93;;
23745;SDS011;12053;48.878;9.632;2023-02-15T17:29:10;23.45;;;12.35;;
23745;SDS011;12053;48.878;9.632;2023-02-15T17:31:38;22.90;;;13.00;;
23745;SDS011;12053;48.878;9.632;2023-02-15T17:34:09;23.45;;;12.50;;
23745;SDS011;12053;48.878;9.632;2023-02-15T17:36:56;21.83;;;13.60;;
23745;SDS011;12053;48.878;9.632;2023-02-15T17:39:25;23.92;;;13.68;;
23745;SDS011;12053;48.878;9.632;2023-02-15T17:41:52;26.25;;;14.52;;